sensor_id;sensor_type;location;lat;lon;timestamp;temperature;humidity
27890;DHT22;15238;49.082;9.102;2024-03-23T00:55:02;9.50;99.90
27890;DHT22;15238;49.082;9.102;2024-03-23T00:57:02;9.50;99.90
27890;DHT22;15238;49.082;9.102;2024-03-23T00:59:06;9.50;99.90
27890;DHT22;15238;49.082;9.102;2024-03-23T01:01:06;9.50;99.90
27890;DHT22;15238;49.082;9.102;2024-03-23T01:03:07;9.60;99.90
27890;DHT22;15238;49.082;9.102;2024-03-23T01:05:07;9.60;99.90
27890;DHT22;15238;49.082;9.102;2024-03-23T01:07:14;9.60;99.90
27890;DHT22;15238;49.082;9.102;2024-03-23T01:09:24;9.70;99.90
27890;DHT22;15238;49.082;9.102;2024-03-23T01:11:24;9.70;99.90
27890;DHT22;15238;49.082;9.102;2024-03-23T01:13:25;9.80;99.90
27890;DHT22;15238;49.082;9.102;2024-03-23T01:15:25;9.80;99.90
27890;DHT22;15238;49.082;9.102;2024-03-23T01:17:26;9.80;99.90
27890;DHT22;15238;49.082;9.102;2024-03-23T01:19:32;9.80;99.90
27890;DHT22;15238;49.082;9.102;2024-03-23T01:21:33;9.80;99.90
27890;DHT22;15238;49.082;9.102;2024-03-23T01:23:33;9.80;99.90
27890;DHT22;15238;49.082;9.102;2024-03-23T01:25:34;9.80;99.90
27890;DHT22;15238;49.082;9.102;2024-03-23T01:27:34;9.80;99.90
27890;DHT22;15238;49.082;9.102;2024-03-23T01:29:35;9.80;99.90
27890;DHT22;15238;49.082;9.102;2024-03-23T01:31:35;9.80;99.90
27890;DHT22;15238;49.082;9.102;2024-03-23T01:33:36;9.70;99.90
27890;DHT22;15238;49.082;9.102;2024-03-23T01:35:36;9.70;99.90
27890;DHT22;15238;49.082;9.102;2024-03-23T01:37:37;9.70;99.90
27890;DHT22;15238;49.082;9.102;2024-03-23T01:39:37;9.70;99.90
27890;DHT22;15238;49.082;9.102;2024-03-23T01:41:44;9.80;99.90
27890;DHT22;15238;49.082;9.102;2024-03-23T01:43:44;9.80;99.90
27890;DHT22;15238;49.082;9.102;2024-03-23T01:45:51;9.90;99.90
27890;DHT22;15238;49.082;9.102;2024-03-23T01:47:55;9.90;99.90
27890;DHT22;15238;49.082;9.102;2024-03-23T01:50:01;9.90;99.90
27890;DHT22;15238;49.082;9.102;2024-03-23T01:52:02;9.90;99.90
27890;DHT22;15238;49.082;9.102;2024-03-23T01:54:04;9.90;99.90
27890;DHT22;15238;49.082;9.102;2024-03-23T01:56:05;9.80;99.90
27890;DHT22;15238;49.082;9.102;2024-03-23T01:58:06;9.80;99.90
27890;DHT22;15238;49.082;9.102;2024-03-23T02:00:07;9.80;99.90
27890;DHT22;15238;49.082;9.102;2024-03-23T02:02:08;9.80;99.90
27890;DHT22;15238;49.082;9.102;2024-03-23T02:04:09;9.80;99.90
27890;DHT22;15238;49.082;9.102;2024-03-23T02:06:10;9.80;99.90
27890;DHT22;15238;49.082;9.102;2024-03-23T02:08:10;9.80;99.90
27890;DHT22;15238;49.082;9.102;2024-03-23T02:10:11;9.70;99.90
27890;DHT22;15238;49.082;9.102;2024-03-23T02:12:13;9.70;99.90
27890;DHT22;15238;49.082;9.102;2024-03-23T02:14:16;9.60;99.90
27890;DHT22;15238;49.082;9.102;2024-03-23T02:16:17;9.60;99.90
27890;DHT22;15238;49.082;9.102;2024-03-23T02:18:17;9.60;99.90
27890;DHT22;15238;49.082;9.102;2024-03-23T02:20:18;9.50;99.90
27890;DHT22;15238;49.082;9.102;2024-03-23T02:22:18;9.50;99.90
27890;DHT22;15238;49.082;9.102;2024-03-23T02:24:19;9.40;99.90
27890;DHT22;15238;49.082;9.102;2024-03-23T02:26:19;9.40;99.90
27890;DHT22;15238;49.082;9.102;2024-03-23T02:28:20;9.40;99.90
27890;DHT22;15238;49.082;9.102;2024-03-23T02:30:22;9.40;99.90
27890;DHT22;15238;49.082;9.102;2024-03-23T02:32:23;9.40;99.90
27890;DHT22;15238;49.082;9.102;2024-03-23T02:34:23;9.40;99.90
27890;DHT22;15238;49.082;9.102;2024-03-23T02:36:24;9.30;99.90
27890;DHT22;15238;49.082;9.102;2024-03-23T02:38:24;9.40;99.90
27890;DHT22;15238;49.082;9.102;2024-03-23T02:40:25;9.30;99.90
27890;DHT22;15238;49.082;9.102;2024-03-23T02:42:26;9.30;99.90
27890;DHT22;15238;49.082;9.102;2024-03-23T02:44:26;9.30;99.90
27890;DHT22;15238;49.082;9.102;2024-03-23T02:46:27;9.30;99.90
27890;DHT22;15238;49.082;9.102;2024-03-23T02:48:28;9.30;99.90
27890;DHT22;15238;49.082;9.102;2024-03-23T02:50:34;9.30;99.90
27890;DHT22;15238;49.082;9.102;2024-03-23T02:52:35;9.30;99.90
27890;DHT22;15238;49.082;9.102;2024-03-23T02:54:38;9.30;99.90
27890;DHT22;15238;49.082;9.102;2024-03-23T02:56:39;9.30;99.90
27890;DHT22;15238;49.082;9.102;2024-03-23T02:58:39;9.30;99.90
27890;DHT22;15238;49.082;9.102;2024-03-23T03:00:40;9.40;99.90
27890;DHT22;15238;49.082;9.102;2024-03-23T03:02:41;9.40;99.90
27890;DHT22;15238;49.082;9.102;2024-03-23T03:04:42;9.40;99.90
27890;DHT22;15238;49.082;9.102;2024-03-23T03:06:48;9.40;99.90
27890;DHT22;15238;49.082;9.102;2024-03-23T03:08:49;9.40;99.90
27890;DHT22;15238;49.082;9.102;2024-03-23T03:10:49;9.40;99.90
27890;DHT22;15238;49.082;9.102;2024-03-23T03:12:50;9.30;99.90
27890;DHT22;15238;49.082;9.102;2024-03-23T03:14:50;9.30;99.90
27890;DHT22;15238;49.082;9.102;2024-03-23T03:16:51;9.20;99.90
27890;DHT22;15238;49.082;9.102;2024-03-23T03:18:51;9.20;99.90
27890;DHT22;15238;49.082;9.102;2024-03-23T03:20:54;9.20;99.90
27890;DHT22;15238;49.082;9.102;2024-03-23T03:22:55;9.20;99.90
27890;DHT22;15238;49.082;9.102;2024-03-23T03:24:55;9.20;99.90
27890;DHT22;15238;49.082;9.102;2024-03-23T03:26:56;9.20;99.90
27890;DHT22;15238;49.082;9.102;2024-03-23T03:28:57;9.20;99.90
27890;DHT22;15238;49.082;9.102;2024-03-23T03:30:59;9.30;99.90
27890;DHT22;15238;49.082;9.102;2024-03-23T03:32:59;9.40;99.90
27890;DHT22;15238;49.082;9.102;2024-03-23T03:35:00;9.40;99.90
27890;DHT22;15238;49.082;9.102;2024-03-23T03:37:07;9.50;99.90
27890;DHT22;15238;49.082;9.102;2024-03-23T03:39:07;9.50;99.90
27890;DHT22;15238;49.082;9.102;2024-03-23T03:41:08;9.60;99.90
27890;DHT22;15238;49.082;9.102;2024-03-23T03:43:08;9.60;99.90
27890;DHT22;15238;49.082;9.102;2024-03-23T03:45:09;9.70;99.90
27890;DHT22;15238;49.082;9.102;2024-03-23T03:47:09;9.70;99.90
27890;DHT22;15238;49.082;9.102;2024-03-23T03:49:10;9.70;99.90
27890;DHT22;15238;49.082;9.102;2024-03-23T03:51:10;9.80;99.90
27890;DHT22;15238;49.082;9.102;2024-03-23T03:53:11;9.80;99.90
27890;DHT22;15238;49.082;9.102;2024-03-23T03:55:14;9.90;99.90
27890;DHT22;15238;49.082;9.102;2024-03-23T03:57:15;10.20;99.90
27890;DHT22;15238;49.082;9.102;2024-03-23T03:59:15;10.30;99.90
27890;DHT22;15238;49.082;9.102;2024-03-23T04:01:16;10.50;99.90
27890;DHT22;15238;49.082;9.102;2024-03-23T04:03:16;10.50;99.90
27890;DHT22;15238;49.082;9.102;2024-03-23T04:05:17;10.70;99.90
27890;DHT22;15238;49.082;9.102;2024-03-23T04:07:17;10.90;99.90
27890;DHT22;15238;49.082;9.102;2024-03-23T04:09:18;11.10;99.90
27890;DHT22;15238;49.082;9.102;2024-03-23T04:11:19;11.20;99.90
27890;DHT22;15238;49.082;9.102;2024-03-23T04:13:19;11.40;99.90
27890;DHT22;15238;49.082;9.102;2024-03-23T04:15:20;11.50;99.90
27890;DHT22;15238;49.082;9.102;2024-03-23T04:17:21;11.60;99.90
27890;DHT22;15238;49.082;9.102;2024-03-23T04:19:21;11.60;99.90
27890;DHT22;15238;49.082;9.102;2024-03-23T04:21:22;11.60;99.90
27890;DHT22;15238;49.082;9.102;2024-03-23T04:23:23;11.60;99.90
27890;DHT22;15238;49.082;9.102;2024-03-23T04:25:23;11.60;99.90
27890;DHT22;15238;49.082;9.102;2024-03-23T04:27:24;11.50;99.90
27890;DHT22;15238;49.082;9.102;2024-03-23T04:29:25;11.50;99.90
27890;DHT22;15238;49.082;9.102;2024-03-23T04:31:27;11.40;99.90
27890;DHT22;15238;49.082;9.102;2024-03-23T04:33:27;11.30;99.90
27890;DHT22;15238;49.082;9.102;2024-03-23T04:35:28;11.20;99.90
27890;DHT22;15238;49.082;9.102;2024-03-23T04:37:28;11.10;99.90
27890;DHT22;15238;49.082;9.102;2024-03-23T04:39:29;11.10;99.90
27890;DHT22;15238;49.082;9.102;2024-03-23T04:41:29;11.00;99.90
27890;DHT22;15238;49.082;9.102;2024-03-23T04:43:30;11.00;99.90
27890;DHT22;15238;49.082;9.102;2024-03-23T04:45:31;11.00;99.90
27890;DHT22;15238;49.082;9.102;2024-03-23T04:47:31;11.00;99.90
27890;DHT22;15238;49.082;9.102;2024-03-23T04:49:32;10.90;99.90
27890;DHT22;15238;49.082;9.102;2024-03-23T04:51:36;10.90;99.90
27890;DHT22;15238;49.082;9.102;2024-03-23T04:53:38;10.90;99.90
27890;DHT22;15238;49.082;9.102;2024-03-23T04:55:38;10.90;99.90
27890;DHT22;15238;49.082;9.102;2024-03-23T04:57:39;10.90;99.90
27890;DHT22;15238;49.082;9.102;2024-03-23T04:59:39;10.80;99.90
27890;DHT22;15238;49.082;9.102;2024-03-23T05:01:40;10.80;99.90
27890;DHT22;15238;49.082;9.102;2024-03-23T05:03:42;10.80;99.90
27890;DHT22;15238;49.082;9.102;2024-03-23T05:05:42;10.80;99.90
27890;DHT22;15238;49.082;9.102;2024-03-23T05:07:43;10.70;99.90
27890;DHT22;15238;49.082;9.102;2024-03-23T05:09:43;10.70;99.90
27890;DHT22;15238;49.082;9.102;2024-03-23T05:11:44;10.70;99.90
27890;DHT22;15238;49.082;9.102;2024-03-23T05:13:45;10.70;99.90
27890;DHT22;15238;49.082;9.102;2024-03-23T05:16:00;10.70;99.90
27890;DHT22;15238;49.082;9.102;2024-03-23T05:18:00;10.70;99.90
27890;DHT22;15238;49.082;9.102;2024-03-23T05:20:01;10.80;99.90
27890;DHT22;15238;49.082;9.102;2024-03-23T05:22:01;10.90;99.90
27890;DHT22;15238;49.082;9.102;2024-03-23T05:24:02;10.90;99.90
27890;DHT22;15238;49.082;9.102;2024-03-23T05:26:03;10.80;99.90
27890;DHT22;15238;49.082;9.102;2024-03-23T05:28:04;10.70;99.90
27890;DHT22;15238;49.082;9.102;2024-03-23T05:30:06;10.60;99.90
27890;DHT22;15238;49.082;9.102;2024-03-23T05:32:07;10.60;99.90
27890;DHT22;15238;49.082;9.102;2024-03-23T05:34:13;10.50;99.90
27890;DHT22;15238;49.082;9.102;2024-03-23T05:36:14;10.50;99.90
27890;DHT22;15238;49.082;9.102;2024-03-23T05:38:14;10.40;99.90
27890;DHT22;15238;49.082;9.102;2024-03-23T05:40:18;10.30;99.90
27890;DHT22;15238;49.082;9.102;2024-03-23T05:42:19;10.30;99.90
27890;DHT22;15238;49.082;9.102;2024-03-23T05:44:19;10.30;99.90
27890;DHT22;15238;49.082;9.102;2024-03-23T05:46:19;10.20;99.90
27890;DHT22;15238;49.082;9.102;2024-03-23T05:48:20;10.20;99.90
27890;DHT22;15238;49.082;9.102;2024-03-23T05:50:20;10.20;99.90
27890;DHT22;15238;49.082;9.102;2024-03-23T05:52:21;10.10;99.90
27890;DHT22;15238;49.082;9.102;2024-03-23T05:54:21;10.10;99.90
27890;DHT22;15238;49.082;9.102;2024-03-23T05:56:22;10.10;99.90
27890;DHT22;15238;49.082;9.102;2024-03-23T05:58:22;10.10;99.90
27890;DHT22;15238;49.082;9.102;2024-03-23T06:00:23;10.00;99.90
27890;DHT22;15238;49.082;9.102;2024-03-23T06:02:26;10.00;99.90
27890;DHT22;15238;49.082;9.102;2024-03-23T06:04:27;9.90;99.90
27890;DHT22;15238;49.082;9.102;2024-03-23T06:06:28;9.90;99.90
27890;DHT22;15238;49.082;9.102;2024-03-23T06:08:33;9.90;99.90
27890;DHT22;15238;49.082;9.102;2024-03-23T06:10:33;9.90;99.90
27890;DHT22;15238;49.082;9.102;2024-03-23T06:12:34;9.90;99.90
27890;DHT22;15238;49.082;9.102;2024-03-23T06:14:38;9.90;99.90
27890;DHT22;15238;49.082;9.102;2024-03-23T06:16:38;9.80;99.90
27890;DHT22;15238;49.082;9.102;2024-03-23T06:18:39;9.80;99.90
27890;DHT22;15238;49.082;9.102;2024-03-23T06:20:40;9.80;99.90
27890;DHT22;15238;49.082;9.102;2024-03-23T06:22:40;9.80;99.90
27890;DHT22;15238;49.082;9.102;2024-03-23T06:24:41;9.70;99.90
27890;DHT22;15238;49.082;9.102;2024-03-23T06:26:41;9.70;99.90
27890;DHT22;15238;49.082;9.102;2024-03-23T06:28:42;9.70;99.90
27890;DHT22;15238;49.082;9.102;2024-03-23T06:30:42;9.70;99.90
27890;DHT22;15238;49.082;9.102;2024-03-23T06:32:43;9.70;99.90
27890;DHT22;15238;49.082;9.102;2024-03-23T06:34:43;9.70;99.90
27890;DHT22;15238;49.082;9.102;2024-03-23T06:36:44;9.70;99.90
27890;DHT22;15238;49.082;9.102;2024-03-23T06:38:46;9.70;99.90
27890;DHT22;15238;49.082;9.102;2024-03-23T06:40:47;9.70;99.90
27890;DHT22;15238;49.082;9.102;2024-03-23T06:42:52;9.70;99.90
27890;DHT22;15238;49.082;9.102;2024-03-23T06:44:52;9.60;99.90
27890;DHT22;15238;49.082;9.102;2024-03-23T06:46:53;9.60;99.90
27890;DHT22;15238;49.082;9.102;2024-03-23T06:48:53;9.70;99.90
27890;DHT22;15238;49.082;9.102;2024-03-23T06:50:57;9.60;99.90
27890;DHT22;15238;49.082;9.102;2024-03-23T06:52:58;9.70;99.90
27890;DHT22;15238;49.082;9.102;2024-03-23T06:54:58;9.60;99.90
27890;DHT22;15238;49.082;9.102;2024-03-23T06:56:59;9.60;99.90
27890;DHT22;15238;49.082;9.102;2024-03-23T06:58:59;9.50;99.90
27890;DHT22;15238;49.082;9.102;2024-03-23T07:01:00;9.50;99.90
27890;DHT22;15238;49.082;9.102;2024-03-23T07:03:01;9.50;99.90
27890;DHT22;15238;49.082;9.102;2024-03-23T07:05:01;9.40;99.90
27890;DHT22;15238;49.082;9.102;2024-03-23T07:07:02;9.30;99.90
27890;DHT22;15238;49.082;9.102;2024-03-23T07:09:02;9.30;99.90
27890;DHT22;15238;49.082;9.102;2024-03-23T07:11:03;9.30;99.90
27890;DHT22;15238;49.082;9.102;2024-03-23T07:13:03;9.20;99.90
27890;DHT22;15238;49.082;9.102;2024-03-23T07:15:04;9.20;99.90
27890;DHT22;15238;49.082;9.102;2024-03-23T07:17:05;9.00;99.90
27890;DHT22;15238;49.082;9.102;2024-03-23T07:19:08;8.90;99.90
27890;DHT22;15238;49.082;9.102;2024-03-23T07:21:09;8.80;99.90
27890;DHT22;15238;49.082;9.102;2024-03-23T07:23:09;8.70;99.90
27890;DHT22;15238;49.082;9.102;2024-03-23T07:25:10;8.70;99.90
27890;DHT22;15238;49.082;9.102;2024-03-23T07:27:10;8.70;99.90
27890;DHT22;15238;49.082;9.102;2024-03-23T07:29:11;8.80;99.90
27890;DHT22;15238;49.082;9.102;2024-03-23T07:31:13;8.70;99.90
27890;DHT22;15238;49.082;9.102;2024-03-23T07:33:14;8.80;99.90
27890;DHT22;15238;49.082;9.102;2024-03-23T07:35:15;8.80;99.90
27890;DHT22;15238;49.082;9.102;2024-03-23T07:37:15;8.80;99.90
27890;DHT22;15238;49.082;9.102;2024-03-23T07:39:16;8.80;99.90
27890;DHT22;15238;49.082;9.102;2024-03-23T07:41:19;8.80;99.90
27890;DHT22;15238;49.082;9.102;2024-03-23T07:43:19;8.80;99.90
27890;DHT22;15238;49.082;9.102;2024-03-23T07:45:20;8.80;99.90
27890;DHT22;15238;49.082;9.102;2024-03-23T07:47:20;8.90;99.90
27890;DHT22;15238;49.082;9.102;2024-03-23T07:49:21;8.80;99.90
27890;DHT22;15238;49.082;9.102;2024-03-23T07:51:22;8.70;99.90
27890;DHT22;15238;49.082;9.102;2024-03-23T07:53:23;8.70;99.90
27890;DHT22;15238;49.082;9.102;2024-03-23T07:55:23;8.70;99.90
27890;DHT22;15238;49.082;9.102;2024-03-23T07:57:24;8.60;99.90
27890;DHT22;15238;49.082;9.102;2024-03-23T07:59:24;8.50;99.90
27890;DHT22;15238;49.082;9.102;2024-03-23T08:01:25;8.40;99.90
27890;DHT22;15238;49.082;9.102;2024-03-23T08:03:26;8.30;99.90
27890;DHT22;15238;49.082;9.102;2024-03-23T08:05:26;8.20;99.90
27890;DHT22;15238;49.082;9.102;2024-03-23T08:07:27;8.10;99.90
27890;DHT22;15238;49.082;9.102;2024-03-23T08:09:27;8.10;99.90
27890;DHT22;15238;49.082;9.102;2024-03-23T08:11:29;8.10;99.90
27890;DHT22;15238;49.082;9.102;2024-03-23T08:13:30;8.20;99.90
27890;DHT22;15238;49.082;9.102;2024-03-23T08:15:31;8.20;99.90
27890;DHT22;15238;49.082;9.102;2024-03-23T08:17:34;8.30;99.90
27890;DHT22;15238;49.082;9.102;2024-03-23T08:19:35;8.40;99.90
27890;DHT22;15238;49.082;9.102;2024-03-23T08:21:35;8.40;99.90
27890;DHT22;15238;49.082;9.102;2024-03-23T08:23:36;8.50;99.90
27890;DHT22;15238;49.082;9.102;2024-03-23T08:25:38;8.50;99.90
27890;DHT22;15238;49.082;9.102;2024-03-23T08:27:38;8.60;99.90
27890;DHT22;15238;49.082;9.102;2024-03-23T08:29:39;8.70;99.90
27890;DHT22;15238;49.082;9.102;2024-03-23T08:31:39;8.90;99.90
27890;DHT22;15238;49.082;9.102;2024-03-23T08:33:40;9.00;99.90
27890;DHT22;15238;49.082;9.102;2024-03-23T08:35:43;9.20;99.90
27890;DHT22;15238;49.082;9.102;2024-03-23T08:37:52;9.20;99.90
27890;DHT22;15238;49.082;9.102;2024-03-23T08:39:53;9.20;99.90
27890;DHT22;15238;49.082;9.102;2024-03-23T08:41:53;9.20;99.90
27890;DHT22;15238;49.082;9.102;2024-03-23T08:43:53;9.00;99.90
27890;DHT22;15238;49.082;9.102;2024-03-23T08:45:54;8.90;99.90
27890;DHT22;15238;49.082;9.102;2024-03-23T08:47:54;8.80;99.90
27890;DHT22;15238;49.082;9.102;2024-03-23T08:49:55;8.80;99.90
27890;DHT22;15238;49.082;9.102;2024-03-23T08:51:55;8.80;99.90
27890;DHT22;15238;49.082;9.102;2024-03-23T08:53:56;8.80;99.90
27890;DHT22;15238;49.082;9.102;2024-03-23T08:55:58;8.80;99.90
27890;DHT22;15238;49.082;9.102;2024-03-23T08:57:59;9.00;99.90
27890;DHT22;15238;49.082;9.102;2024-03-23T09:00:00;9.00;99.90
27890;DHT22;15238;49.082;9.102;2024-03-23T09:02:01;9.00;99.90
27890;DHT22;15238;49.082;9.102;2024-03-23T09:04:02;9.10;99.90
27890;DHT22;15238;49.082;9.102;2024-03-23T09:06:10;9.20;99.90
27890;DHT22;15238;49.082;9.102;2024-03-23T09:08:11;9.20;99.90
27890;DHT22;15238;49.082;9.102;2024-03-23T09:10:11;9.10;99.90
27890;DHT22;15238;49.082;9.102;2024-03-23T09:12:11;9.10;99.90
27890;DHT22;15238;49.082;9.102;2024-03-23T09:14:12;9.10;99.90
27890;DHT22;15238;49.082;9.102;2024-03-23T09:16:13;9.20;99.90
27890;DHT22;15238;49.082;9.102;2024-03-23T09:18:13;9.20;99.90
27890;DHT22;15238;49.082;9.102;2024-03-23T09:20:14;9.30;99.90
27890;DHT22;15238;49.082;9.102;2024-03-23T09:22:14;9.50;99.90
27890;DHT22;15238;49.082;9.102;2024-03-23T09:24:15;9.80;99.90
27890;DHT22;15238;49.082;9.102;2024-03-23T09:26:15;10.00;99.90
27890;DHT22;15238;49.082;9.102;2024-03-23T09:28:16;10.00;99.90
27890;DHT22;15238;49.082;9.102;2024-03-23T09:30:16;10.10;99.90
27890;DHT22;15238;49.082;9.102;2024-03-23T09:32:17;10.00;99.90
27890;DHT22;15238;49.082;9.102;2024-03-23T09:34:18;9.90;99.90
27890;DHT22;15238;49.082;9.102;2024-03-23T09:36:19;9.80;99.90
27890;DHT22;15238;49.082;9.102;2024-03-23T09:38:19;9.70;99.90
27890;DHT22;15238;49.082;9.102;2024-03-23T09:40:20;9.50;99.90
27890;DHT22;15238;49.082;9.102;2024-03-23T09:42:20;9.50;99.90
27890;DHT22;15238;49.082;9.102;2024-03-23T09:44:21;9.60;99.90
27890;DHT22;15238;49.082;9.102;2024-03-23T09:46:22;9.70;99.90
27890;DHT22;15238;49.082;9.102;2024-03-23T09:48:23;9.80;99.90
27890;DHT22;15238;49.082;9.102;2024-03-23T09:50:23;10.00;99.90
27890;DHT22;15238;49.082;9.102;2024-03-23T09:52:24;10.10;99.90
27890;DHT22;15238;49.082;9.102;2024-03-23T09:54:24;10.20;99.90
27890;DHT22;15238;49.082;9.102;2024-03-23T09:56:25;10.30;99.90
27890;DHT22;15238;49.082;9.102;2024-03-23T09:58:25;10.30;99.90
27890;DHT22;15238;49.082;9.102;2024-03-23T10:00:26;10.40;99.90
27890;DHT22;15238;49.082;9.102;2024-03-23T10:02:28;10.40;99.90
27890;DHT22;15238;49.082;9.102;2024-03-23T10:04:39;10.30;99.90
27890;DHT22;15238;49.082;9.102;2024-03-23T10:06:39;10.20;99.90
27890;DHT22;15238;49.082;9.102;2024-03-23T10:08:40;9.80;99.90
27890;DHT22;15238;49.082;9.102;2024-03-23T10:10:41;9.60;99.90
27890;DHT22;15238;49.082;9.102;2024-03-23T10:12:46;9.40;99.90
27890;DHT22;15238;49.082;9.102;2024-03-23T10:14:47;9.50;99.90
27890;DHT22;15238;49.082;9.102;2024-03-23T10:16:48;9.50;99.90
27890;DHT22;15238;49.082;9.102;2024-03-23T10:18:49;9.60;99.90
27890;DHT22;15238;49.082;9.102;2024-03-23T10:23:16;9.70;99.90
27890;DHT22;15238;49.082;9.102;2024-03-23T10:25:17;9.70;99.90
27890;DHT22;15238;49.082;9.102;2024-03-23T10:27:19;9.70;99.90
27890;DHT22;15238;49.082;9.102;2024-03-23T10:29:20;9.80;99.90
27890;DHT22;15238;49.082;9.102;2024-03-23T10:31:21;9.90;99.90
27890;DHT22;15238;49.082;9.102;2024-03-23T10:33:21;9.90;99.90
27890;DHT22;15238;49.082;9.102;2024-03-23T10:35:25;9.90;99.90
27890;DHT22;15238;49.082;9.102;2024-03-23T10:37:25;9.90;99.90
27890;DHT22;15238;49.082;9.102;2024-03-23T10:39:26;9.90;99.90
27890;DHT22;15238;49.082;9.102;2024-03-23T10:41:27;9.80;99.90
27890;DHT22;15238;49.082;9.102;2024-03-23T10:43:30;9.70;99.90
27890;DHT22;15238;49.082;9.102;2024-03-23T10:45:33;9.70;99.90
27890;DHT22;15238;49.082;9.102;2024-03-23T10:47:35;9.50;99.90
27890;DHT22;15238;49.082;9.102;2024-03-23T10:49:39;9.40;99.90
27890;DHT22;15238;49.082;9.102;2024-03-23T10:51:39;9.10;99.90
27890;DHT22;15238;49.082;9.102;2024-03-23T10:53:40;9.00;99.90
27890;DHT22;15238;49.082;9.102;2024-03-23T10:55:41;8.90;99.90
27890;DHT22;15238;49.082;9.102;2024-03-23T10:57:45;8.70;99.90
27890;DHT22;15238;49.082;9.102;2024-03-23T10:59:48;8.60;99.90
27890;DHT22;15238;49.082;9.102;2024-03-23T11:01:57;8.50;99.90
27890;DHT22;15238;49.082;9.102;2024-03-23T11:03:57;8.60;99.90
27890;DHT22;15238;49.082;9.102;2024-03-23T11:05:59;8.70;99.90
27890;DHT22;15238;49.082;9.102;2024-03-23T11:08:00;8.80;99.90
27890;DHT22;15238;49.082;9.102;2024-03-23T11:10:01;9.00;99.90
27890;DHT22;15238;49.082;9.102;2024-03-23T11:14:23;9.30;99.90
27890;DHT22;15238;49.082;9.102;2024-03-23T11:16:26;9.30;99.90
27890;DHT22;15238;49.082;9.102;2024-03-23T11:18:31;9.20;99.90
27890;DHT22;15238;49.082;9.102;2024-03-23T11:20:32;9.20;99.90
27890;DHT22;15238;49.082;9.102;2024-03-23T11:22:46;9.10;99.90
27890;DHT22;15238;49.082;9.102;2024-03-23T11:24:50;9.30;99.90
27890;DHT22;15238;49.082;9.102;2024-03-23T11:26:51;9.50;99.90
27890;DHT22;15238;49.082;9.102;2024-03-23T11:29:09;9.70;99.90
27890;DHT22;15238;49.082;9.102;2024-03-23T11:31:10;10.00;99.90
27890;DHT22;15238;49.082;9.102;2024-03-23T11:33:12;10.10;99.90
27890;DHT22;15238;49.082;9.102;2024-03-23T11:35:34;10.20;99.90
27890;DHT22;15238;49.082;9.102;2024-03-23T11:37:34;10.20;99.90
27890;DHT22;15238;49.082;9.102;2024-03-23T11:39:35;10.30;99.90
27890;DHT22;15238;49.082;9.102;2024-03-23T11:41:35;10.30;99.90
27890;DHT22;15238;49.082;9.102;2024-03-23T11:43:36;10.30;99.90
27890;DHT22;15238;49.082;9.102;2024-03-23T11:45:59;10.30;99.90
27890;DHT22;15238;49.082;9.102;2024-03-23T11:48:10;10.40;99.90
27890;DHT22;15238;49.082;9.102;2024-03-23T11:50:19;10.40;99.90
27890;DHT22;15238;49.082;9.102;2024-03-23T11:52:19;10.60;99.90
27890;DHT22;15238;49.082;9.102;2024-03-23T11:54:24;10.70;99.90
27890;DHT22;15238;49.082;9.102;2024-03-23T11:56:25;10.60;99.90
27890;DHT22;15238;49.082;9.102;2024-03-23T11:58:26;10.40;99.90
27890;DHT22;15238;49.082;9.102;2024-03-23T12:00:27;10.40;99.90
27890;DHT22;15238;49.082;9.102;2024-03-23T12:02:29;10.50;99.90
27890;DHT22;15238;49.082;9.102;2024-03-23T12:04:30;10.50;99.90
27890;DHT22;15238;49.082;9.102;2024-03-23T12:06:30;10.50;99.90
27890;DHT22;15238;49.082;9.102;2024-03-23T12:08:35;10.70;99.90
27890;DHT22;15238;49.082;9.102;2024-03-23T12:10:35;10.70;99.90
27890;DHT22;15238;49.082;9.102;2024-03-23T12:12:36;10.60;99.90
27890;DHT22;15238;49.082;9.102;2024-03-23T12:14:37;10.60;99.90
27890;DHT22;15238;49.082;9.102;2024-03-23T12:16:37;10.80;99.90
27890;DHT22;15238;49.082;9.102;2024-03-23T12:18:40;10.90;99.90
27890;DHT22;15238;49.082;9.102;2024-03-23T12:20:41;11.10;99.90
27890;DHT22;15238;49.082;9.102;2024-03-23T12:22:45;11.30;99.90
27890;DHT22;15238;49.082;9.102;2024-03-23T12:24:47;11.40;99.90
27890;DHT22;15238;49.082;9.102;2024-03-23T12:26:51;11.40;99.90
27890;DHT22;15238;49.082;9.102;2024-03-23T12:28:51;11.00;99.90
27890;DHT22;15238;49.082;9.102;2024-03-23T12:30:52;11.00;99.90
27890;DHT22;15238;49.082;9.102;2024-03-23T12:32:54;11.30;99.90
27890;DHT22;15238;49.082;9.102;2024-03-23T12:35:01;11.30;99.90
27890;DHT22;15238;49.082;9.102;2024-03-23T12:37:01;11.40;99.90
27890;DHT22;15238;49.082;9.102;2024-03-23T12:39:05;11.50;99.90
27890;DHT22;15238;49.082;9.102;2024-03-23T12:41:05;11.40;99.90
27890;DHT22;15238;49.082;9.102;2024-03-23T12:43:06;11.30;99.90
27890;DHT22;15238;49.082;9.102;2024-03-23T12:45:07;11.40;99.90
27890;DHT22;15238;49.082;9.102;2024-03-23T12:47:08;11.30;99.90
27890;DHT22;15238;49.082;9.102;2024-03-23T12:49:11;11.40;99.90
27890;DHT22;15238;49.082;9.102;2024-03-23T12:51:12;11.30;99.90
27890;DHT22;15238;49.082;9.102;2024-03-23T12:53:12;11.20;99.90
27890;DHT22;15238;49.082;9.102;2024-03-23T12:55:13;11.30;99.90
27890;DHT22;15238;49.082;9.102;2024-03-23T12:57:14;11.30;99.90
27890;DHT22;15238;49.082;9.102;2024-03-23T12:59:14;11.50;99.90
27890;DHT22;15238;49.082;9.102;2024-03-23T13:01:15;11.50;99.90
27890;DHT22;15238;49.082;9.102;2024-03-23T13:03:15;11.30;99.90
27890;DHT22;15238;49.082;9.102;2024-03-23T13:05:16;11.00;99.90
27890;DHT22;15238;49.082;9.102;2024-03-23T13:07:18;10.90;99.90
27890;DHT22;15238;49.082;9.102;2024-03-23T13:09:18;10.90;99.90
27890;DHT22;15238;49.082;9.102;2024-03-23T13:11:19;10.90;99.90
27890;DHT22;15238;49.082;9.102;2024-03-23T13:13:19;11.00;99.90
27890;DHT22;15238;49.082;9.102;2024-03-23T13:15:25;11.00;99.90
27890;DHT22;15238;49.082;9.102;2024-03-23T13:17:29;11.00;99.90
27890;DHT22;15238;49.082;9.102;2024-03-23T13:19:30;11.00;99.90
27890;DHT22;15238;49.082;9.102;2024-03-23T13:21:31;11.10;99.90
27890;DHT22;15238;49.082;9.102;2024-03-23T13:23:31;10.90;99.90
27890;DHT22;15238;49.082;9.102;2024-03-23T13:25:40;10.60;99.90
27890;DHT22;15238;49.082;9.102;2024-03-23T13:27:44;10.20;99.90
27890;DHT22;15238;49.082;9.102;2024-03-23T13:29:45;9.90;99.90
27890;DHT22;15238;49.082;9.102;2024-03-23T13:31:47;9.80;99.90
27890;DHT22;15238;49.082;9.102;2024-03-23T13:33:48;9.60;99.90
27890;DHT22;15238;49.082;9.102;2024-03-23T13:35:52;9.60;99.90
27890;DHT22;15238;49.082;9.102;2024-03-23T13:37:53;9.80;99.90
27890;DHT22;15238;49.082;9.102;2024-03-23T13:39:56;9.80;99.90
27890;DHT22;15238;49.082;9.102;2024-03-23T13:42:03;9.50;99.90
27890;DHT22;15238;49.082;9.102;2024-03-23T13:44:05;8.80;99.90
27890;DHT22;15238;49.082;9.102;2024-03-23T13:46:05;7.70;99.90
27890;DHT22;15238;49.082;9.102;2024-03-23T13:48:06;6.90;99.90
27890;DHT22;15238;49.082;9.102;2024-03-23T13:50:09;6.70;99.90
27890;DHT22;15238;49.082;9.102;2024-03-23T13:52:13;6.50;99.90
27890;DHT22;15238;49.082;9.102;2024-03-23T13:54:16;6.60;99.90